sensor_id;sensor_type;location;lat;lon;timestamp;pressure;altitude;pressure_sealevel;temperature;humidity
9235;BME280;4652;42.716;23.218;2023-10-08T00:04:20;95227.28;;;11.52;71.82
9235;BME280;4652;42.716;23.218;2023-10-08T00:11:05;95212.84;;;11.38;73.66
9235;BME280;4652;42.716;23.218;2023-10-08T00:17:48;95220.06;;;11.48;73.35
9235;BME280;4652;42.716;23.218;2023-10-08T00:24:30;95177.09;;;11.28;73.97
9235;BME280;4652;42.716;23.218;2023-10-08T00:31:15;95192.16;;;11.34;77.40
9235;BME280;4652;42.716;23.218;2023-10-08T00:37:58;95174.13;;;11.29;77.27
9235;BME280;4652;42.716;23.218;2023-10-08T00:44:41;95182.94;;;11.40;76.04
9235;BME280;4652;42.716;23.218;2023-10-08T00:51:33;95184.69;;;11.49;76.95
9235;BME280;4652;42.716;23.218;2023-10-08T00:58:20;95181.31;;;11.39;79.86
9235;BME280;4652;42.716;23.218;2023-10-08T02:51:52;95153.97;;;10.93;86.62
9235;BME280;4652;42.716;23.218;2023-10-08T02:58:34;95143.13;;;10.69;86.24
9235;BME280;4652;42.716;23.218;2023-10-08T03:05:16;95170.06;;;10.69;85.91
9235;BME280;4652;42.716;23.218;2023-10-08T03:12:01;95162.34;;;10.57;86.80
9235;BME280;4652;42.716;23.218;2023-10-08T03:18:49;95139.88;;;10.33;89.00
9235;BME280;4652;42.716;23.218;2023-10-08T03:25:32;95161.03;;;10.50;90.57
9235;BME280;4652;42.716;23.218;2023-10-08T03:32:23;95153.59;;;10.37;87.33
9235;BME280;4652;42.716;23.218;2023-10-08T03:39:07;95160.19;;;10.16;89.29
9235;BME280;4652;42.716;23.218;2023-10-08T03:45:53;95144.47;;;9.79;91.68
9235;BME280;4652;42.716;23.218;2023-10-08T03:52:41;95144.28;;;9.60;94.14
9235;BME280;4652;42.716;23.218;2023-10-08T03:59:24;95131.75;;;9.20;97.19
9235;BME280;4652;42.716;23.218;2023-10-08T04:06:11;95098.00;;;8.79;100.00
9235;BME280;4652;42.716;23.218;2023-10-08T04:12:57;95127.53;;;8.74;100.00
9235;BME280;4652;42.716;23.218;2023-10-08T04:19:39;95134.53;;;8.75;100.00
9235;BME280;4652;42.716;23.218;2023-10-08T04:26:21;95131.28;;;8.88;100.00
9235;BME280;4652;42.716;23.218;2023-10-08T04:33:07;95121.88;;;8.91;100.00
9235;BME280;4652;42.716;23.218;2023-10-08T04:39:52;95121.84;;;9.01;100.00
9235;BME280;4652;42.716;23.218;2023-10-08T04:46:41;95140.09;;;9.09;100.00
9235;BME280;4652;42.716;23.218;2023-10-08T04:53:34;95132.56;;;9.21;100.00
9235;BME280;4652;42.716;23.218;2023-10-08T05:00:18;95136.56;;;9.33;100.00
9235;BME280;4652;42.716;23.218;2023-10-08T05:07:21;95142.91;;;9.68;100.00
9235;BME280;4652;42.716;23.218;2023-10-08T05:14:24;95144.09;;;10.00;100.00
9235;BME280;4652;42.716;23.218;2023-10-08T05:21:15;95141.94;;;10.51;98.86
9235;BME280;4652;42.716;23.218;2023-10-08T05:28:06;95133.13;;;11.03;93.02
9235;BME280;4652;42.716;23.218;2023-10-08T05:34:53;95137.06;;;14.27;71.02
9235;BME280;4652;42.716;23.218;2023-10-08T05:41:56;95111.28;;;18.44;54.10
9235;BME280;4652;42.716;23.218;2023-10-08T05:48:55;95083.66;;;22.35;45.23
9235;BME280;4652;42.716;23.218;2023-10-08T05:55:44;95129.94;;;24.24;42.13
9235;BME280;4652;42.716;23.218;2023-10-08T06:02:42;95138.75;;;25.42;39.38
9235;BME280;4652;42.716;23.218;2023-10-08T06:09:41;95124.78;;;26.38;38.04
9235;BME280;4652;42.716;23.218;2023-10-08T06:16:32;95127.84;;;27.38;37.34
9235;BME280;4652;42.716;23.218;2023-10-08T06:23:22;95118.41;;;29.65;34.46
9235;BME280;4652;42.716;23.218;2023-10-08T06:30:05;95117.81;;;28.13;36.09
9235;BME280;4652;42.716;23.218;2023-10-08T06:36:59;95104.66;;;27.82;37.04
9235;BME280;4652;42.716;23.218;2023-10-08T06:43:42;95116.22;;;28.12;37.07
9235;BME280;4652;42.716;23.218;2023-10-08T06:50:24;95108.03;;;29.80;35.42
9235;BME280;4652;42.716;23.218;2023-10-08T06:57:08;95087.75;;;28.82;35.85
9235;BME280;4652;42.716;23.218;2023-10-08T07:08:00;95092.63;;;29.68;35.20
9235;BME280;4652;42.716;23.218;2023-10-08T07:14:46;95088.81;;;31.74;33.14
9235;BME280;4652;42.716;23.218;2023-10-08T07:21:29;95090.94;;;32.46;29.67
9235;BME280;4652;42.716;23.218;2023-10-08T07:28:26;95073.91;;;34.09;28.17
9235;BME280;4652;42.716;23.218;2023-10-08T07:35:09;95075.31;;;33.22;28.25
9235;BME280;4652;42.716;23.218;2023-10-08T07:42:05;95079.03;;;33.55;27.97
9235;BME280;4652;42.716;23.218;2023-10-08T07:48:49;95065.78;;;34.31;27.97
9235;BME280;4652;42.716;23.218;2023-10-08T07:55:31;95074.56;;;31.68;29.15
9235;BME280;4652;42.716;23.218;2023-10-08T08:02:16;95042.41;;;29.38;31.63
9235;BME280;4652;42.716;23.218;2023-10-08T08:09:02;95052.88;;;26.20;35.09
9235;BME280;4652;42.716;23.218;2023-10-08T08:15:48;95043.59;;;25.25;36.90
9235;BME280;4652;42.716;23.218;2023-10-08T08:22:31;95034.88;;;25.20;36.70
9235;BME280;4652;42.716;23.218;2023-10-08T08:29:15;95048.94;;;25.07;36.92
9235;BME280;4652;42.716;23.218;2023-10-08T08:36:00;95041.38;;;24.45;37.42
9235;BME280;4652;42.716;23.218;2023-10-08T08:42:44;95039.25;;;25.57;37.68
9235;BME280;4652;42.716;23.218;2023-10-08T08:49:29;95023.16;;;26.10;36.61
9235;BME280;4652;42.716;23.218;2023-10-08T08:56:14;95022.97;;;25.86;36.12
9235;BME280;4652;42.716;23.218;2023-10-08T09:02:56;94997.84;;;25.98;37.36
9235;BME280;4652;42.716;23.218;2023-10-08T09:09:39;95024.78;;;25.67;37.40
9235;BME280;4652;42.716;23.218;2023-10-08T09:16:22;95011.72;;;25.28;38.39
9235;BME280;4652;42.716;23.218;2023-10-08T09:23:07;95014.22;;;25.40;37.05
9235;BME280;4652;42.716;23.218;2023-10-08T09:29:55;94991.66;;;24.94;38.74
9235;BME280;4652;42.716;23.218;2023-10-08T09:36:37;95003.75;;;25.16;37.79
9235;BME280;4652;42.716;23.218;2023-10-08T09:43:22;94993.47;;;24.49;38.28
9235;BME280;4652;42.716;23.218;2023-10-08T09:50:07;94990.78;;;24.27;39.43
9235;BME280;4652;42.716;23.218;2023-10-08T09:56:53;94976.69;;;24.32;38.46
9235;BME280;4652;42.716;23.218;2023-10-08T10:03:38;94975.84;;;24.87;38.12
9235;BME280;4652;42.716;23.218;2023-10-08T10:10:28;94975.53;;;25.33;36.81
9235;BME280;4652;42.716;23.218;2023-10-08T10:17:19;94969.25;;;25.73;36.56
9235;BME280;4652;42.716;23.218;2023-10-08T10:24:03;94947.25;;;25.83;37.20
9235;BME280;4652;42.716;23.218;2023-10-08T10:30:48;94950.72;;;25.73;38.00
9235;BME280;4652;42.716;23.218;2023-10-08T10:37:30;94929.81;;;24.91;38.60
9235;BME280;4652;42.716;23.218;2023-10-08T10:44:22;94929.38;;;24.86;39.70
9235;BME280;4652;42.716;23.218;2023-10-08T10:51:05;94918.78;;;24.58;39.50
9235;BME280;4652;42.716;23.218;2023-10-08T10:57:52;94914.25;;;24.10;40.33
9235;BME280;4652;42.716;23.218;2023-10-08T11:04:43;94897.81;;;24.17;39.72
9235;BME280;4652;42.716;23.218;2023-10-08T11:11:29;94901.88;;;24.89;38.35
9235;BME280;4652;42.716;23.218;2023-10-08T11:18:13;94861.13;;;25.53;38.70
9235;BME280;4652;42.716;23.218;2023-10-08T11:24:56;94885.47;;;25.98;37.88
9235;BME280;4652;42.716;23.218;2023-10-08T11:31:40;94879.00;;;25.73;39.21
9235;BME280;4652;42.716;23.218;2023-10-08T11:38:22;94863.16;;;25.19;40.39
9235;BME280;4652;42.716;23.218;2023-10-08T11:45:05;94870.31;;;24.50;40.59
9235;BME280;4652;42.716;23.218;2023-10-08T11:52:00;94882.69;;;24.67;40.19
9235;BME280;4652;42.716;23.218;2023-10-08T11:58:42;94883.72;;;24.18;41.49
9235;BME280;4652;42.716;23.218;2023-10-08T12:05:25;94861.88;;;24.06;41.33
9235;BME280;4652;42.716;23.218;2023-10-08T12:12:11;94866.91;;;24.60;41.05
9235;BME280;4652;42.716;23.218;2023-10-08T12:18:54;94879.84;;;24.56;41.05
9235;BME280;4652;42.716;23.218;2023-10-08T12:25:39;94892.44;;;24.90;40.68
9235;BME280;4652;42.716;23.218;2023-10-08T12:32:28;94832.25;;;24.59;41.03
9235;BME280;4652;42.716;23.218;2023-10-08T12:39:11;94874.84;;;25.46;41.06
9235;BME280;4652;42.716;23.218;2023-10-08T12:45:55;94857.09;;;25.43;40.10
9235;BME280;4652;42.716;23.218;2023-10-08T12:52:38;94849.53;;;24.56;40.97
9235;BME280;4652;42.716;23.218;2023-10-08T12:59:27;94847.63;;;24.60;40.77
9235;BME280;4652;42.716;23.218;2023-10-08T13:38:28;94835.72;;;24.19;42.44
9235;BME280;4652;42.716;23.218;2023-10-08T13:45:10;94836.16;;;23.91;42.92
9235;BME280;4652;42.716;23.218;2023-10-08T13:52:06;94834.38;;;23.76;43.20
9235;BME280;4652;42.716;23.218;2023-10-08T13:58:50;94828.28;;;23.90;42.56
9235;BME280;4652;42.716;23.218;2023-10-08T14:05:36;94822.03;;;23.93;42.51
9235;BME280;4652;42.716;23.218;2023-10-08T14:12:19;94820.38;;;23.59;43.01
9235;BME280;4652;42.716;23.218;2023-10-08T14:19:02;94783.81;;;23.32;42.97
9235;BME280;4652;42.716;23.218;2023-10-08T14:25:46;94826.16;;;23.50;42.62
9235;BME280;4652;42.716;23.218;2023-10-08T14:32:29;94818.59;;;23.44;41.90
9235;BME280;4652;42.716;23.218;2023-10-08T14:39:14;94832.81;;;23.26;42.74
9235;BME280;4652;42.716;23.218;2023-10-08T14:46:25;94827.66;;;22.99;42.90
9235;BME280;4652;42.716;23.218;2023-10-08T14:53:11;94819.41;;;22.53;43.68
9235;BME280;4652;42.716;23.218;2023-10-08T14:59:55;94829.94;;;22.51;44.08
9235;BME280;4652;42.716;23.218;2023-10-08T15:06:39;94846.09;;;22.56;44.12
9235;BME280;4652;42.716;23.218;2023-10-08T16:25:35;94952.34;;;20.77;50.15
9235;BME280;4652;42.716;23.218;2023-10-08T16:32:18;94932.66;;;20.71;50.72
9235;BME280;4652;42.716;23.218;2023-10-08T16:38:59;94956.94;;;20.73;51.30
9235;BME280;4652;42.716;23.218;2023-10-08T16:45:43;94963.38;;;20.65;51.78
9235;BME280;4652;42.716;23.218;2023-10-08T16:52:26;94975.59;;;20.55;52.62
9235;BME280;4652;42.716;23.218;2023-10-08T16:59:08;94928.88;;;20.08;52.91
9235;BME280;4652;42.716;23.218;2023-10-08T17:05:53;94927.69;;;19.93;53.89
9235;BME280;4652;42.716;23.218;2023-10-08T17:12:36;94958.94;;;20.20;54.22
9235;BME280;4652;42.716;23.218;2023-10-08T17:19:18;94968.09;;;20.12;55.05
9235;BME280;4652;42.716;23.218;2023-10-08T17:26:03;94979.94;;;20.04;56.14
9235;BME280;4652;42.716;23.218;2023-10-08T17:32:46;95006.00;;;20.14;56.47
9235;BME280;4652;42.716;23.218;2023-10-08T17:39:28;94997.47;;;20.15;57.19
9235;BME280;4652;42.716;23.218;2023-10-08T17:46:12;95005.06;;;20.22;57.39
9235;BME280;4652;42.716;23.218;2023-10-08T17:52:54;95006.56;;;20.19;58.04
9235;BME280;4652;42.716;23.218;2023-10-08T17:59:36;95013.09;;;20.03;59.04
9235;BME280;4652;42.716;23.218;2023-10-08T18:06:21;95013.22;;;19.94;59.39
9235;BME280;4652;42.716;23.218;2023-10-08T18:13:03;95021.88;;;19.84;59.47
9235;BME280;4652;42.716;23.218;2023-10-08T18:19:45;95018.91;;;19.65;60.52
9235;BME280;4652;42.716;23.218;2023-10-08T18:26:31;95032.13;;;19.63;61.05
9235;BME280;4652;42.716;23.218;2023-10-08T18:33:13;95018.56;;;19.42;61.34
9235;BME280;4652;42.716;23.218;2023-10-08T18:39:55;95013.00;;;19.39;61.84
9235;BME280;4652;42.716;23.218;2023-10-08T18:46:39;95039.19;;;19.52;61.84
9235;BME280;4652;42.716;23.218;2023-10-08T18:53:21;95041.91;;;19.52;61.38
9235;BME280;4652;42.716;23.218;2023-10-08T19:00:05;95063.19;;;19.58;61.47
9235;BME280;4652;42.716;23.218;2023-10-08T20:52:07;95164.81;;;19.19;64.68
9235;BME280;4652;42.716;23.218;2023-10-08T20:58:49;95148.44;;;19.19;64.51
9235;BME280;4652;42.716;23.218;2023-10-08T21:05:33;95158.69;;;19.22;64.79
9235;BME280;4652;42.716;23.218;2023-10-08T21:12:17;95172.94;;;19.27;65.07
9235;BME280;4652;42.716;23.218;2023-10-08T21:19:02;95184.53;;;19.24;64.66
9235;BME280;4652;42.716;23.218;2023-10-08T21:25:43;95169.84;;;19.29;64.95
9235;BME280;4652;42.716;23.218;2023-10-08T21:32:27;95186.38;;;19.32;65.22
9235;BME280;4652;42.716;23.218;2023-10-08T21:39:09;95183.44;;;19.38;65.08
9235;BME280;4652;42.716;23.218;2023-10-08T21:45:52;95175.97;;;19.26;65.69
9235;BME280;4652;42.716;23.218;2023-10-08T21:52:36;95186.09;;;19.25;65.79
9235;BME280;4652;42.716;23.218;2023-10-08T21:59:18;95190.66;;;19.21;65.87
9235;BME280;4652;42.716;23.218;2023-10-08T22:06:01;95199.16;;;19.20;66.17
9235;BME280;4652;42.716;23.218;2023-10-08T22:12:44;95210.94;;;19.12;66.72
9235;BME280;4652;42.716;23.218;2023-10-08T22:19:26;95195.72;;;19.11;67.33
9235;BME280;4652;42.716;23.218;2023-10-08T22:26:10;95209.03;;;19.12;67.32
9235;BME280;4652;42.716;23.218;2023-10-08T22:32:56;95197.16;;;19.08;67.46
9235;BME280;4652;42.716;23.218;2023-10-08T22:39:39;95208.50;;;18.98;67.93
9235;BME280;4652;42.716;23.218;2023-10-08T22:46:23;95199.56;;;18.89;68.43
9235;BME280;4652;42.716;23.218;2023-10-08T22:53:15;95231.66;;;18.92;68.32
9235;BME280;4652;42.716;23.218;2023-10-08T22:59:57;95224.97;;;18.81;68.37
9235;BME280;4652;42.716;23.218;2023-10-08T23:06:40;95242.53;;;18.71;68.71
9235;BME280;4652;42.716;23.218;2023-10-08T23:13:24;95251.69;;;18.67;69.40
9235;BME280;4652;42.716;23.218;2023-10-08T23:20:07;95251.44;;;18.60;69.37
9235;BME280;4652;42.716;23.218;2023-10-08T23:26:51;95254.34;;;18.55;69.83
9235;BME280;4652;42.716;23.218;2023-10-08T23:33:36;95252.44;;;18.47;69.86
9235;BME280;4652;42.716;23.218;2023-10-08T23:40:20;95252.72;;;18.54;69.83
9235;BME280;4652;42.716;23.218;2023-10-08T23:47:08;95246.16;;;18.55;69.51
9235;BME280;4652;42.716;23.218;2023-10-08T23:53:53;95249.22;;;18.45;69.39
